createdAt,value
2022-11-10T00:00:06.748Z,71.50
2022-11-10T00:03:08.450Z,70.70
2022-11-10T00:06:07.753Z,71.50
2022-11-10T00:09:01.199Z,71.00
2022-11-10T00:11:54.650Z,70.80
2022-11-10T00:15:06.806Z,71.00
2022-11-10T00:18:05.175Z,70.60
2022-11-10T00:21:04.996Z,70.50
2022-11-10T00:23:58.408Z,69.40
2022-11-10T00:26:52.407Z,69.70
2022-11-10T00:29:46.241Z,69.80
2022-11-10T00:32:39.557Z,70.60
2022-11-10T00:35:33.195Z,69.50
2022-11-10T00:38:26.631Z,69.20
2022-11-10T00:41:21.034Z,68.60
2022-11-10T00:44:14.472Z,67.80
2022-11-10T00:47:08.312Z,67.40
2022-11-10T00:50:01.886Z,65.90
2022-11-10T00:52:55.203Z,65.90
2022-11-10T00:55:49.076Z,66.40
2022-11-10T00:58:42.534Z,66.20
2022-11-10T01:01:36.199Z,66.70
2022-11-10T01:04:29.363Z,66.70
2022-11-10T01:07:22.513Z,66.60
2022-11-10T01:10:16.572Z,68.00
2022-11-10T01:13:09.884Z,68.10
2022-11-10T01:16:08.359Z,68.30
2022-11-10T01:19:03.299Z,68.70
2022-11-10T01:21:56.733Z,69.00
2022-11-10T01:24:50.049Z,69.00
2022-11-10T01:27:43.632Z,68.20
2022-11-10T01:30:37.334Z,68.40
2022-11-10T01:33:31.368Z,68.20
2022-11-10T01:36:24.602Z,68.20
2022-11-10T01:39:18.204Z,68.40
2022-11-10T01:42:12.757Z,68.50
2022-11-10T01:45:24.625Z,68.10
2022-11-10T01:48:31.008Z,69.00
2022-11-10T01:51:37.617Z,69.30
2022-11-10T01:54:41.841Z,70.50
2022-11-10T01:57:37.107Z,71.10
2022-11-10T02:00:30.410Z,71.10
2022-11-10T02:03:42.782Z,70.80
2022-11-10T02:06:41.304Z,71.00
2022-11-10T02:09:34.483Z,71.00
2022-11-10T02:12:37.063Z,71.10
2022-11-10T02:15:33.077Z,71.40
2022-11-10T02:18:26.627Z,72.00
2022-11-10T02:21:21.298Z,72.30
2022-11-10T02:24:14.618Z,72.60
2022-11-10T02:27:07.971Z,72.50
2022-11-10T02:30:01.802Z,72.70
2022-11-10T02:32:55.121Z,72.40
2022-11-10T02:35:48.616Z,72.70
2022-11-10T02:38:42.316Z,72.80
2022-11-10T02:41:35.983Z,72.80
2022-11-10T02:44:29.627Z,72.90
2022-11-10T02:47:23.530Z,73.00
2022-11-10T02:50:16.925Z,72.90
2022-11-10T02:53:10.557Z,72.90
2022-11-10T02:56:04.125Z,73.00
2022-11-10T02:58:57.491Z,73.00
2022-11-10T03:01:50.811Z,73.30
2022-11-10T03:04:44.294Z,73.30
2022-11-10T03:07:37.843Z,73.60
2022-11-10T03:10:31.432Z,73.40
2022-11-10T03:13:35.469Z,73.40
2022-11-10T03:16:38.827Z,73.60
2022-11-10T03:19:32.369Z,73.90
2022-11-10T03:22:25.901Z,74.20
2022-11-10T03:25:19.678Z,74.40
2022-11-10T03:28:13.611Z,74.70
2022-11-10T03:31:07.089Z,74.70
2022-11-10T03:34:00.714Z,74.90
2022-11-10T03:36:53.945Z,75.10
2022-11-10T03:39:47.561Z,75.30
2022-11-10T03:42:45.680Z,75.40
2022-11-10T03:45:39.129Z,75.40
2022-11-10T03:48:32.763Z,75.60
2022-11-10T03:51:26.335Z,75.80
2022-11-10T03:54:19.857Z,75.90
2022-11-10T03:57:13.505Z,76.00
2022-11-10T04:00:08.056Z,76.20
2022-11-10T04:03:01.837Z,76.30
2022-11-10T04:06:13.801Z,76.70
2022-11-10T04:09:08.365Z,76.60
2022-11-10T04:12:24.649Z,76.80
2022-11-10T04:15:37.255Z,76.80
2022-11-10T04:18:30.878Z,76.50
2022-11-10T04:21:24.053Z,76.30
2022-11-10T04:24:17.637Z,75.60
2022-11-10T04:27:11.180Z,75.70
2022-11-10T04:30:06.046Z,75.20
2022-11-10T04:32:59.343Z,74.80
2022-11-10T04:35:52.834Z,74.30
2022-11-10T04:38:46.763Z,73.90
2022-11-10T04:41:40.403Z,73.60
2022-11-10T04:44:34.164Z,73.20
2022-11-10T04:47:27.585Z,72.60
2022-11-10T04:50:21.503Z,72.00
2022-11-10T04:53:15.305Z,71.40
2022-11-10T04:56:20.598Z,71.20
2022-11-10T04:59:14.178Z,71.20
2022-11-10T05:02:07.389Z,70.90
2022-11-10T05:05:00.963Z,70.90
2022-11-10T05:07:54.538Z,70.70
2022-11-10T05:10:47.804Z,71.20
2022-11-10T05:13:41.588Z,70.90
2022-11-10T05:16:34.930Z,71.20
2022-11-10T05:19:28.381Z,71.70
2022-11-10T05:22:21.923Z,71.50
2022-11-10T05:25:15.435Z,71.60
2022-11-10T05:28:12.158Z,71.40
2022-11-10T05:31:06.575Z,71.70
2022-11-10T05:34:00.034Z,71.90
2022-11-10T05:36:53.584Z,72.10
2022-11-10T05:39:46.842Z,72.30
2022-11-10T05:42:45.906Z,72.60
2022-11-10T05:45:39.538Z,73.30
2022-11-10T05:48:33.013Z,74.00
2022-11-10T05:51:27.179Z,74.40
2022-11-10T05:54:20.445Z,74.40
2022-11-10T05:57:13.956Z,74.20
2022-11-10T06:00:08.365Z,74.10
2022-11-10T06:03:16.039Z,74.10
2022-11-10T06:06:09.671Z,74.20
2022-11-10T06:09:03.329Z,74.20
2022-11-10T06:11:57.137Z,74.20
2022-11-10T06:14:51.737Z,74.00
2022-11-10T06:17:45.462Z,74.10
2022-11-10T06:20:39.007Z,73.90
2022-11-10T06:23:32.207Z,73.70
2022-11-10T06:26:25.740Z,73.60
2022-11-10T06:29:24.099Z,73.60
2022-11-10T06:32:20.192Z,73.90
2022-11-10T06:35:13.974Z,74.00
2022-11-10T06:38:12.541Z,73.70
2022-11-10T06:41:06.217Z,73.30
2022-11-10T06:43:59.783Z,73.20
2022-11-10T06:46:53.395Z,73.50
2022-11-10T06:49:46.784Z,73.60
2022-11-10T06:52:40.406Z,73.50
2022-11-10T06:55:34.530Z,73.50
2022-11-10T06:58:28.175Z,73.70
2022-11-10T07:01:26.277Z,73.60
2022-11-10T07:04:21.126Z,73.80
2022-11-10T07:07:14.779Z,73.70
2022-11-10T07:10:08.422Z,73.50
2022-11-10T07:13:04.201Z,73.10
2022-11-10T07:15:57.659Z,72.70
2022-11-10T07:18:51.424Z,72.50
2022-11-10T07:21:45.006Z,72.30
2022-11-10T07:24:38.640Z,72.10
2022-11-10T07:27:32.290Z,71.70
2022-11-10T07:30:27.260Z,71.30
2022-11-10T07:33:21.288Z,70.90
2022-11-10T07:36:15.203Z,70.50
2022-11-10T07:39:08.863Z,70.40
2022-11-10T07:42:02.872Z,70.20
2022-11-10T07:44:56.209Z,70.40
2022-11-10T07:47:50.526Z,70.60
2022-11-10T07:50:44.454Z,70.80
2022-11-10T07:53:38.767Z,71.00
2022-11-10T07:56:32.024Z,71.10
2022-11-10T07:59:25.794Z,71.20
2022-11-10T08:02:19.075Z,71.50
2022-11-10T08:05:12.628Z,71.60
2022-11-10T08:08:06.906Z,71.70
2022-11-10T08:11:00.635Z,71.40
2022-11-10T08:13:53.870Z,71.90
2022-11-10T08:16:47.376Z,71.80
2022-11-10T08:19:40.906Z,71.90
2022-11-10T08:22:34.541Z,71.80
2022-11-10T08:25:34.900Z,71.90
2022-11-10T08:28:29.305Z,71.90
2022-11-10T08:31:23.678Z,71.70
2022-11-10T08:34:17.250Z,71.50
2022-11-10T08:37:10.808Z,71.70
2022-11-10T08:40:04.926Z,71.80
2022-11-10T08:43:00.247Z,71.70
2022-11-10T08:45:58.595Z,71.60
2022-11-10T08:48:51.899Z,71.50
2022-11-10T08:51:45.643Z,71.50
2022-11-10T08:54:39.025Z,69.90
2022-11-10T08:57:32.755Z,68.60
2022-11-10T09:00:28.640Z,65.50
2022-11-10T09:03:25.126Z,60.60
2022-11-10T09:06:18.914Z,58.30
2022-11-10T09:09:12.581Z,57.20
2022-11-10T09:12:06.260Z,54.70
2022-11-10T09:14:59.627Z,53.70
2022-11-10T09:17:53.292Z,51.30
2022-11-10T09:20:46.843Z,50.20
2022-11-10T09:23:40.313Z,50.00
2022-11-10T09:26:34.159Z,49.70
2022-11-10T09:29:27.994Z,46.20
2022-11-10T09:32:21.536Z,45.90
2022-11-10T09:35:15.442Z,45.00
2022-11-10T09:38:09.620Z,44.50
2022-11-10T09:41:08.860Z,42.70
2022-11-10T09:44:51.256Z,41.90
2022-11-10T09:48:19.004Z,40.40
2022-11-10T09:51:20.916Z,39.10
2022-11-10T09:54:45.898Z,39.00
2022-11-10T09:57:46.148Z,39.60
2022-11-10T10:00:50.945Z,39.50
2022-11-10T10:03:55.036Z,39.10
2022-11-10T10:07:11.807Z,39.10
2022-11-10T10:10:23.228Z,38.90
2022-11-10T10:13:43.844Z,38.40
2022-11-10T10:16:49.100Z,39.00
2022-11-10T10:19:58.536Z,38.00
2022-11-10T10:23:17.041Z,36.80
2022-11-10T10:26:18.988Z,37.00
2022-11-10T10:29:25.947Z,36.70
2022-11-10T10:32:22.443Z,36.50
2022-11-10T10:35:18.206Z,36.20
2022-11-10T10:38:36.879Z,35.60
2022-11-10T10:41:33.619Z,35.50
2022-11-10T10:44:27.280Z,35.40
2022-11-10T10:47:40.098Z,35.20
2022-11-10T10:50:42.929Z,34.50
2022-11-10T10:53:49.077Z,33.90
2022-11-10T10:56:42.667Z,34.10
2022-11-10T10:59:36.218Z,33.60
2022-11-10T11:02:33.054Z,34.30
2022-11-10T11:05:26.413Z,33.60
2022-11-10T11:08:20.753Z,33.10
2022-11-10T11:11:14.456Z,32.00
2022-11-10T11:14:14.033Z,32.60
2022-11-10T11:17:34.560Z,32.30
2022-11-10T11:20:57.995Z,32.70
2022-11-10T11:23:59.755Z,32.50
2022-11-10T11:27:11.192Z,33.30
2022-11-10T11:30:19.816Z,34.00
2022-11-10T11:33:21.679Z,34.40
2022-11-10T11:36:22.980Z,31.50
2022-11-10T11:39:50.110Z,30.70
2022-11-10T11:43:12.608Z,30.10
2022-11-10T11:46:37.577Z,30.70
2022-11-10T11:49:51.968Z,30.80
2022-11-10T11:53:07.970Z,30.80
2022-11-10T11:56:13.316Z,32.20
2022-11-10T11:59:39.084Z,35.70
2022-11-10T12:03:10.188Z,34.30
2022-11-10T12:06:28.728Z,32.30
2022-11-10T12:09:51.214Z,36.50
2022-11-10T12:13:16.874Z,35.70
2022-11-10T12:16:29.777Z,34.00
2022-11-10T12:20:24.034Z,30.00
2022-11-10T12:24:06.029Z,32.00
2022-11-10T12:27:31.014Z,33.60
2022-11-10T12:30:24.410Z,36.80
2022-11-10T12:34:09.529Z,36.00
2022-11-10T12:37:07.414Z,36.30
2022-11-10T12:40:25.861Z,37.00
2022-11-10T12:44:31.213Z,33.70
2022-11-10T12:47:32.055Z,36.90
2022-11-10T12:50:40.135Z,36.60
2022-11-10T12:53:39.396Z,36.70
2022-11-10T12:56:42.089Z,34.40
2022-11-10T12:59:54.223Z,36.90
2022-11-10T13:02:49.708Z,38.60
2022-11-10T13:05:45.440Z,35.90
2022-11-10T13:08:41.893Z,39.30
2022-11-10T13:11:37.519Z,37.00
2022-11-10T13:14:31.919Z,36.10
2022-11-10T13:17:28.453Z,35.00
2022-11-10T13:20:53.500Z,30.60
2022-11-10T13:23:46.722Z,33.60
2022-11-10T13:26:40.395Z,36.40
2022-11-10T13:29:42.670Z,32.50
2022-11-10T13:32:36.838Z,32.10
2022-11-10T13:35:30.328Z,32.10
2022-11-10T13:38:33.050Z,31.70
2022-11-10T13:41:27.358Z,32.10
2022-11-10T13:44:42.181Z,32.20
2022-11-10T13:47:51.516Z,34.70
2022-11-10T13:51:38.193Z,32.80
2022-11-10T13:55:02.902Z,35.10
2022-11-10T13:58:00.889Z,29.50
2022-11-10T14:01:26.043Z,29.30
2022-11-10T14:04:42.607Z,33.70
2022-11-10T14:07:46.203Z,31.10
2022-11-10T14:10:58.737Z,30.60
2022-11-10T14:14:12.309Z,32.80
2022-11-10T14:17:20.343Z,33.60
2022-11-10T14:20:47.398Z,29.90
2022-11-10T14:23:57.682Z,29.30
2022-11-10T14:26:58.939Z,30.10
2022-11-10T14:30:05.484Z,30.70
2022-11-10T14:33:03.875Z,31.60
2022-11-10T14:36:01.437Z,30.10
2022-11-10T14:38:55.154Z,29.20
2022-11-10T14:41:51.086Z,29.90
2022-11-10T14:44:44.504Z,31.20
2022-11-10T14:47:38.067Z,29.40
2022-11-10T14:50:35.337Z,29.40
2022-11-10T14:53:34.889Z,30.20
2022-11-10T14:56:32.574Z,29.80
2022-11-10T14:59:26.178Z,29.40
2022-11-10T15:02:20.059Z,29.40
2022-11-10T15:05:15.573Z,29.80
2022-11-10T15:08:10.245Z,30.50
2022-11-10T15:11:03.911Z,31.70
2022-11-10T15:13:57.362Z,30.50
2022-11-10T15:17:16.126Z,30.00
2022-11-10T15:20:35.436Z,30.20
2022-11-10T15:23:37.249Z,30.50
2022-11-10T15:26:40.000Z,30.90
2022-11-10T15:29:33.865Z,31.70
2022-11-10T15:32:43.130Z,32.40
2022-11-10T15:35:36.948Z,32.70
2022-11-10T15:38:32.086Z,33.10
2022-11-10T15:41:27.576Z,33.40
2022-11-10T15:44:26.258Z,34.30
2022-11-10T15:47:20.767Z,34.90
2022-11-10T15:50:14.245Z,34.70
2022-11-10T15:53:15.028Z,35.20
2022-11-10T15:56:09.239Z,35.30
2022-11-10T15:59:04.134Z,35.70
2022-11-10T16:01:57.910Z,36.10
2022-11-10T16:04:59.501Z,36.20
2022-11-10T16:07:53.289Z,36.40
2022-11-10T16:10:50.005Z,35.70
2022-11-10T16:13:45.098Z,35.20
2022-11-10T16:16:39.253Z,35.60
2022-11-10T16:19:32.560Z,36.20
2022-11-10T16:22:26.120Z,36.50
2022-11-10T16:25:25.220Z,37.20
2022-11-10T16:28:26.243Z,37.10
2022-11-10T16:31:21.960Z,36.90
2022-11-10T16:34:15.555Z,37.20
2022-11-10T16:37:12.567Z,36.70
2022-11-10T16:40:19.159Z,36.60
2022-11-10T16:43:18.896Z,37.30
2022-11-10T16:46:29.031Z,37.20
2022-11-10T16:49:34.621Z,37.40
2022-11-10T16:52:27.991Z,37.70
2022-11-10T16:55:21.334Z,37.70
2022-11-10T16:58:14.722Z,38.10
2022-11-10T17:01:23.961Z,37.60
2022-11-10T17:04:17.343Z,37.60
2022-11-10T17:07:14.781Z,37.80
2022-11-10T17:10:16.721Z,38.30
2022-11-10T17:13:11.629Z,38.50
2022-11-10T17:16:21.953Z,38.70
2022-11-10T17:19:25.846Z,38.80
2022-11-10T17:22:22.710Z,39.00
2022-11-10T17:25:29.083Z,39.10
2022-11-10T17:28:22.896Z,39.50
2022-11-10T17:31:16.338Z,39.40
2022-11-10T17:34:09.836Z,39.50
2022-11-10T17:37:04.875Z,39.60
2022-11-10T17:39:59.079Z,39.60
2022-11-10T17:42:52.635Z,40.00
2022-11-10T17:45:46.042Z,40.40
2022-11-10T17:48:39.363Z,40.90
2022-11-10T17:51:34.659Z,41.20
2022-11-10T17:54:28.261Z,41.30
2022-11-10T17:57:21.895Z,41.60
2022-11-10T18:00:17.819Z,41.80
2022-11-10T18:03:22.592Z,41.80
2022-11-10T18:06:19.203Z,41.90
2022-11-10T18:09:13.169Z,42.10
2022-11-10T18:12:08.157Z,42.10
2022-11-10T18:15:01.841Z,42.30
2022-11-10T18:18:00.088Z,42.50
2022-11-10T18:20:56.710Z,42.70
2022-11-10T18:23:50.374Z,43.50
2022-11-10T18:26:43.787Z,43.40
2022-11-10T18:29:37.081Z,43.60
2022-11-10T18:32:30.460Z,44.10
2022-11-10T18:35:24.556Z,44.20
2022-11-10T18:38:18.212Z,44.60
2022-11-10T18:41:30.295Z,44.70
2022-11-10T18:44:24.070Z,45.30
2022-11-10T18:47:17.872Z,45.50
2022-11-10T18:50:11.531Z,45.40
2022-11-10T18:53:05.271Z,45.40
2022-11-10T18:55:59.069Z,45.50
2022-11-10T18:58:56.686Z,45.80
2022-11-10T19:01:50.983Z,46.40
2022-11-10T19:04:44.599Z,46.80
2022-11-10T19:07:38.347Z,46.80
2022-11-10T19:10:31.716Z,46.80
2022-11-10T19:13:25.883Z,46.90
2022-11-10T19:16:20.001Z,47.00
2022-11-10T19:19:13.707Z,47.00
2022-11-10T19:22:07.253Z,47.10
2022-11-10T19:25:08.051Z,47.30
2022-11-10T19:28:02.872Z,47.40
2022-11-10T19:31:14.241Z,47.90
2022-11-10T19:34:07.748Z,48.40
2022-11-10T19:37:01.301Z,48.40
2022-11-10T19:39:54.898Z,48.40
2022-11-10T19:42:48.546Z,48.70
2022-11-10T19:45:42.221Z,48.90
2022-11-10T19:48:36.447Z,49.00
2022-11-10T19:51:30.148Z,49.50
2022-11-10T19:54:23.401Z,49.70
2022-11-10T19:57:16.938Z,50.00
2022-11-10T20:00:12.463Z,50.30
2022-11-10T20:03:11.339Z,50.70
2022-11-10T20:06:08.738Z,50.90
2022-11-10T20:09:02.131Z,51.20
2022-11-10T20:11:55.477Z,51.50
2022-11-10T20:14:48.943Z,52.20
2022-11-10T20:17:42.739Z,52.50
2022-11-10T20:20:39.032Z,52.60
2022-11-10T20:23:32.941Z,52.70
2022-11-10T20:26:26.613Z,52.90
2022-11-10T20:29:19.785Z,53.50
2022-11-10T20:32:13.356Z,53.80
2022-11-10T20:35:06.903Z,54.00
2022-11-10T20:38:00.289Z,54.80
2022-11-10T20:41:06.998Z,54.90
2022-11-10T20:44:00.425Z,55.10
2022-11-10T20:46:55.527Z,55.30
2022-11-10T20:49:49.282Z,55.40
2022-11-10T20:52:42.431Z,55.50
2022-11-10T20:55:53.041Z,55.60
2022-11-10T20:58:48.930Z,56.30
2022-11-10T21:01:42.725Z,56.50
2022-11-10T21:04:41.780Z,57.10
2022-11-10T21:07:36.376Z,57.20
2022-11-10T21:10:29.800Z,57.60
2022-11-10T21:13:25.453Z,57.90
2022-11-10T21:16:19.037Z,58.10
2022-11-10T21:19:12.659Z,58.40
2022-11-10T21:22:06.095Z,58.80
2022-11-10T21:24:59.377Z,58.50
2022-11-10T21:27:52.871Z,59.50
2022-11-10T21:30:46.014Z,60.10
2022-11-10T21:33:39.439Z,60.80
2022-11-10T21:36:33.061Z,61.30
2022-11-10T21:39:26.318Z,61.60
2022-11-10T21:42:21.680Z,61.60
2022-11-10T21:45:17.826Z,61.30
2022-11-10T21:48:10.993Z,61.20
2022-11-10T21:51:06.944Z,61.70
2022-11-10T21:54:00.517Z,62.30
2022-11-10T21:56:54.195Z,61.80
2022-11-10T21:59:47.801Z,61.50
2022-11-10T22:02:41.477Z,61.10
2022-11-10T22:05:35.072Z,60.80
2022-11-10T22:08:28.671Z,61.00
2022-11-10T22:11:40.510Z,61.60
2022-11-10T22:14:52.414Z,62.20
2022-11-10T22:18:04.537Z,63.60
2022-11-10T22:20:58.140Z,63.60
2022-11-10T22:24:09.645Z,63.40
2022-11-10T22:27:04.733Z,63.30
2022-11-10T22:29:58.255Z,63.30
2022-11-10T22:32:52.700Z,63.40
2022-11-10T22:35:45.986Z,63.70
2022-11-10T22:38:42.307Z,64.00
2022-11-10T22:41:54.043Z,64.80
2022-11-10T22:44:47.572Z,65.30
2022-11-10T22:47:59.805Z,65.70
2022-11-10T22:50:55.512Z,65.60
2022-11-10T22:53:49.061Z,65.50
2022-11-10T22:56:42.956Z,65.50
2022-11-10T22:59:36.036Z,65.30
2022-11-10T23:02:29.675Z,65.40
2022-11-10T23:05:23.302Z,65.50
2022-11-10T23:08:16.842Z,65.70
2022-11-10T23:11:19.479Z,65.90
2022-11-10T23:14:12.996Z,66.10
2022-11-10T23:17:07.769Z,66.50
2022-11-10T23:20:02.707Z,66.70
2022-11-10T23:22:56.338Z,66.80
2022-11-10T23:26:18.535Z,66.50
2022-11-10T23:29:12.146Z,66.20
2022-11-10T23:32:05.706Z,65.90
2022-11-10T23:34:59.015Z,65.80
2022-11-10T23:37:52.573Z,65.70
2022-11-10T23:40:46.182Z,65.80
2022-11-10T23:43:40.348Z,65.80
2022-11-10T23:46:33.868Z,65.60
2022-11-10T23:49:27.400Z,65.80
2022-11-10T23:52:20.855Z,65.90
2022-11-10T23:55:14.111Z,65.80
2022-11-10T23:58:07.661Z,65.50
